Time;durP1;ratioP1;P1;durP2;ratioP2;P2;SDS_P1;SDS_P2;PMS_P1;PMS_P2;Temp;Humidity;BMP_temperature;BMP_pressure;BME280_temperature;BME280_humidity;BME280_pressure;Samples;Min_cycle;Max_cycle;Signal;HPM_P1;HPM_P2
2023/07/10 00:00:20;;;;;;;10.40;6.63;;;20.30;99.90;;;;;;5087637;28;20205;-80
2023/07/10 00:02:49;;;;;;;10.98;6.20;;;20.40;99.90;;;;;;5086032;28;20229;-80
2023/07/10 00:05:18;;;;;;;8.43;6.32;;;20.30;99.90;;;;;;5083790;28;20202;-80
2023/07/10 00:07:45;;;;;;;12.27;6.20;;;20.00;99.90;;;;;;5083014;28;20662;-80
2023/07/10 00:10:15;;;;;;;9.30;6.43;;;19.90;99.90;;;;;;5089981;28;20656;-80
2023/07/10 00:12:44;;;;;;;10.88;6.25;;;19.80;99.90;;;;;;5083990;28;20226;-81
2023/07/10 00:15:15;;;;;;;10.18;7.05;;;19.70;99.90;;;;;;5087505;28;20581;-80
2023/07/10 00:17:45;;;;;;;12.88;8.25;;;19.60;99.90;;;;;;5088590;28;20289;-80
2023/07/10 00:20:17;;;;;;;12.60;9.82;;;19.70;99.90;;;;;;5085492;28;20221;-80
2023/07/10 00:22:44;;;;;;;13.90;8.52;;;20.00;99.90;;;;;;5074386;28;20233;-80
2023/07/10 00:25:15;;;;;;;12.75;8.85;;;20.10;99.90;;;;;;5091291;28;20198;-80
2023/07/10 00:27:42;;;;;;;13.10;8.98;;;20.10;99.90;;;;;;5091227;28;20217;-80
2023/07/10 00:30:17;;;;;;;13.05;9.18;;;20.10;99.90;;;;;;5086582;28;20595;-81
2023/07/10 00:32:45;;;;;;;12.45;8.30;;;19.90;99.90;;;;;;5086643;28;20225;-80
2023/07/10 00:35:16;;;;;;;15.32;7.85;;;19.80;99.90;;;;;;5085196;28;20266;-80
2023/07/10 00:37:47;;;;;;;16.80;8.77;;;19.90;99.90;;;;;;5086855;28;20320;-80
2023/07/10 00:40:20;;;;;;;11.70;7.55;;;19.90;99.90;;;;;;5078692;28;20204;-80
2023/07/10 00:42:48;;;;;;;10.38;7.80;;;20.10;99.90;;;;;;5086193;28;20574;-80
2023/07/10 00:45:16;;;;;;;10.82;6.75;;;20.20;99.90;;;;;;5085796;28;20259;-80
2023/07/10 00:47:52;;;;;;;8.40;7.07;;;20.20;99.90;;;;;;5086464;28;20202;-80
2023/07/10 00:50:22;;;;;;;10.15;7.28;;;20.00;99.90;;;;;;5082885;28;20592;-80
2023/07/10 00:52:51;;;;;;;12.18;6.95;;;19.80;99.90;;;;;;5091236;28;20222;-80
2023/07/10 00:55:22;;;;;;;10.60;7.15;;;19.90;99.90;;;;;;5089308;28;20694;-80
2023/07/10 00:57:53;;;;;;;22.17;8.07;;;20.00;99.90;;;;;;5083234;28;20206;-80
2023/07/10 01:00:23;;;;;;;17.83;6.40;;;19.50;99.90;;;;;;5085909;28;20345;-80
2023/07/10 01:02:50;;;;;;;16.73;7.80;;;19.40;99.90;;;;;;5085415;28;20228;-80
2023/07/10 01:05:19;;;;;;;13.20;6.93;;;19.50;99.90;;;;;;5089538;28;20205;-80
2023/07/10 01:07:58;;;;;;;10.48;6.60;;;19.80;99.90;;;;;;5083128;28;20212;-80
2023/07/10 01:10:25;;;;;;;13.18;7.68;;;19.80;99.90;;;;;;5084043;28;20301;-80
2023/07/10 01:12:52;;;;;;;15.38;7.35;;;19.70;99.90;;;;;;5091041;28;20229;-80
2023/07/10 01:15:20;;;;;;;11.65;6.85;;;19.60;99.90;;;;;;5084718;28;20202;-80
2023/07/10 01:17:48;;;;;;;10.15;6.50;;;19.60;99.90;;;;;;5077438;28;20205;-80
2023/07/10 01:20:35;;;;;;;13.10;7.63;;;19.80;99.90;;;;;;5084077;28;20590;-80
2023/07/10 01:23:05;;;;;;;9.15;6.60;;;19.70;99.90;;;;;;5092444;28;20225;-80
2023/07/10 01:25:38;;;;;;;10.30;6.70;;;19.50;99.90;;;;;;5081406;28;20206;-80
2023/07/10 01:28:09;;;;;;;10.35;6.85;;;19.60;99.90;;;;;;5086114;28;20313;-80
2023/07/10 01:30:39;;;;;;;11.00;7.18;;;19.60;99.90;;;;;;5085806;28;20218;-80
2023/07/10 01:33:08;;;;;;;9.50;7.40;;;19.60;99.90;;;;;;5085428;28;20244;-80
2023/07/10 01:35:35;;;;;;;8.35;6.45;;;19.60;99.90;;;;;;5085473;28;20209;-80
2023/07/10 01:38:03;;;;;;;12.18;6.95;;;19.50;99.90;;;;;;5084133;28;20207;-80
2023/07/10 01:40:36;;;;;;;12.65;7.50;;;19.70;99.90;;;;;;5082359;28;20553;-80
2023/07/10 01:43:02;;;;;;;13.55;7.70;;;19.70;99.90;;;;;;5083965;28;20232;-80
2023/07/10 01:45:40;;;;;;;21.33;7.80;;;19.60;99.90;;;;;;5087756;28;20202;-80
2023/07/10 01:48:07;;;;;;;19.77;7.97;;;19.40;99.90;;;;;;5090534;28;20208;-80
2023/07/10 01:50:34;;;;;;;12.45;7.30;;;19.30;99.90;;;;;;5087255;28;20217;-80
2023/07/10 01:53:01;;;;;;;17.30;7.57;;;19.50;99.90;;;;;;5084205;28;20218;-80
2023/07/10 01:55:31;;;;;;;16.25;6.80;;;19.50;99.90;;;;;;5091875;28;20205;-80
2023/07/10 01:57:58;;;;;;;15.45;8.07;;;19.60;99.90;;;;;;5084235;28;20641;-80
2023/07/10 02:00:25;;;;;;;12.73;7.25;;;19.50;99.90;;;;;;5084264;28;20212;-80
2023/07/10 02:02:52;;;;;;;18.02;8.57;;;19.40;99.90;;;;;;5087962;28;20222;-80
2023/07/10 02:05:18;;;;;;;18.10;7.35;;;19.30;99.90;;;;;;5092998;28;20200;-80
2023/07/10 02:07:45;;;;;;;21.05;7.25;;;19.20;99.90;;;;;;5084928;28;20210;-80
2023/07/10 02:10:16;;;;;;;18.20;7.85;;;19.20;99.90;;;;;;5084014;28;20689;-81
2023/07/10 02:12:44;;;;;;;16.75;8.05;;;19.40;99.90;;;;;;5085250;28;20221;-81
2023/07/10 02:15:11;;;;;;;18.95;7.55;;;19.50;99.90;;;;;;5083103;28;20724;-81
2023/07/10 02:17:38;;;;;;;17.60;7.53;;;19.60;99.90;;;;;;5088416;28;20201;-81
2023/07/10 02:20:06;;;;;;;12.00;7.38;;;19.70;99.90;;;;;;5085474;28;20194;-81
2023/07/10 02:22:33;;;;;;;16.98;7.07;;;19.80;99.90;;;;;;5085508;28;20229;-81
2023/07/10 02:25:00;;;;;;;21.58;7.47;;;19.80;99.90;;;;;;5088777;28;20193;-80
2023/07/10 02:27:27;;;;;;;14.88;6.57;;;19.70;99.90;;;;;;5082902;28;20222;-80
2023/07/10 02:29:55;;;;;;;17.83;6.68;;;19.60;99.90;;;;;;5092869;28;20225;-80
2023/07/10 02:32:22;;;;;;;16.83;7.00;;;19.50;99.90;;;;;;5079457;28;20716;-80
2023/07/10 02:34:49;;;;;;;17.38;6.78;;;19.60;99.90;;;;;;5088099;28;20211;-80
2023/07/10 02:37:15;;;;;;;14.43;6.63;;;19.50;99.90;;;;;;5081094;28;20210;-81
2023/07/10 02:39:42;;;;;;;20.13;6.93;;;19.40;99.90;;;;;;5088268;28;20209;-81
2023/07/10 02:42:09;;;;;;;14.73;7.18;;;19.20;99.90;;;;;;5083334;28;20221;-81
2023/07/10 02:44:36;;;;;;;16.17;7.97;;;19.40;99.90;;;;;;5082198;28;20228;-81
2023/07/10 02:47:05;;;;;;;19.05;6.75;;;19.30;99.90;;;;;;5081533;28;20226;-80
2023/07/10 02:49:32;;;;;;;18.50;7.13;;;19.20;99.90;;;;;;5085354;28;20682;-80
2023/07/10 02:51:59;;;;;;;16.80;7.00;;;19.20;99.90;;;;;;5084284;28;20425;-81
2023/07/10 02:54:26;;;;;;;16.60;6.72;;;19.30;99.90;;;;;;5086300;28;20204;-81
2023/07/10 02:56:53;;;;;;;14.73;6.75;;;19.40;99.90;;;;;;5084810;28;20657;-81
2023/07/10 02:59:20;;;;;;;18.52;7.47;;;19.40;99.90;;;;;;5085559;28;20204;-81
2023/07/10 03:01:47;;;;;;;17.50;7.13;;;19.40;99.90;;;;;;5085388;28;20222;-80
2023/07/10 03:04:15;;;;;;;26.48;7.45;;;19.50;99.90;;;;;;5085035;28;20227;-80
2023/07/10 03:06:42;;;;;;;16.45;7.28;;;19.60;99.90;;;;;;5084534;28;20205;-80
2023/07/10 03:09:09;;;;;;;17.88;7.25;;;19.50;99.90;;;;;;5084649;28;20716;-80
2023/07/10 03:11:36;;;;;;;21.85;7.93;;;19.50;99.90;;;;;;5088286;28;20674;-80
2023/07/10 03:14:03;;;;;;;16.45;6.82;;;19.30;99.90;;;;;;5084483;28;20198;-80
2023/07/10 03:16:29;;;;;;;19.20;7.03;;;19.40;99.90;;;;;;5080046;28;20208;-80
2023/07/10 03:18:56;;;;;;;17.30;6.88;;;19.50;99.90;;;;;;5080908;28;20680;-79
2023/07/10 03:21:24;;;;;;;15.88;7.20;;;19.30;99.90;;;;;;5081335;28;20242;-80
2023/07/10 03:23:51;;;;;;;16.58;7.30;;;19.30;99.90;;;;;;5085186;28;20202;-80
2023/07/10 03:26:19;;;;;;;13.88;6.32;;;19.30;99.90;;;;;;5092087;28;20656;-80
2023/07/10 03:28:46;;;;;;;13.48;6.38;;;19.40;99.90;;;;;;5089573;28;20284;-80
2023/07/10 03:31:13;;;;;;;12.23;7.38;;;19.40;99.90;;;;;;5086748;28;20223;-79
2023/07/10 03:33:39;;;;;;;16.83;6.45;;;19.60;99.90;;;;;;5088316;28;20288;-80
2023/07/10 03:36:08;;;;;;;17.95;7.05;;;19.60;99.90;;;;;;5086776;28;20210;-80
2023/07/10 03:38:36;;;;;;;13.30;6.72;;;19.60;99.90;;;;;;5089071;28;20219;-80
2023/07/10 03:41:03;;;;;;;11.43;6.35;;;19.50;99.90;;;;;;5089177;28;20208;-80
2023/07/10 03:43:30;;;;;;;14.05;6.65;;;19.50;99.90;;;;;;5083241;28;20210;-81
2023/07/10 03:45:57;;;;;;;17.25;7.78;;;19.50;99.90;;;;;;5074821;28;20214;-80
2023/07/10 03:48:24;;;;;;;17.23;7.15;;;19.50;99.90;;;;;;5088167;28;20198;-80
2023/07/10 03:50:51;;;;;;;13.18;7.43;;;19.50;99.90;;;;;;5089334;28;20226;-80
2023/07/10 03:53:18;;;;;;;17.88;6.78;;;19.50;99.90;;;;;;5078465;28;20221;-80
2023/07/10 03:55:50;;;;;;;17.08;7.10;;;19.50;99.90;;;;;;5086799;28;20210;-80
2023/07/10 03:58:21;;;;;;;12.50;6.80;;;19.50;99.90;;;;;;5084477;28;20210;-79
2023/07/10 04:00:48;;;;;;;14.25;6.88;;;19.50;99.90;;;;;;5091395;28;20236;-80
2023/07/10 04:03:15;;;;;;;12.57;7.20;;;19.50;99.90;;;;;;5088498;28;20199;-80
2023/07/10 04:05:42;;;;;;;14.30;7.15;;;19.70;99.90;;;;;;5091934;28;20209;-81
2023/07/10 04:08:09;;;;;;;17.52;7.47;;;19.60;99.90;;;;;;5086131;28;20266;-80
2023/07/10 04:10:36;;;;;;;15.40;6.40;;;19.60;99.90;;;;;;5087307;28;20226;-81
2023/07/10 04:13:04;;;;;;;13.82;6.82;;;19.60;99.90;;;;;;5081606;28;20704;-81
2023/07/10 04:15:31;;;;;;;15.32;6.82;;;19.60;99.90;;;;;;5091672;28;20206;-79
2023/07/10 04:17:58;;;;;;;14.57;6.97;;;19.50;99.90;;;;;;5086398;28;20202;-79
2023/07/10 04:20:25;;;;;;;15.15;6.78;;;19.60;99.90;;;;;;5086443;28;20209;-79
2023/07/10 04:22:51;;;;;;;11.02;5.88;;;19.50;99.90;;;;;;5093551;28;20221;-79
2023/07/10 04:25:19;;;;;;;11.10;6.10;;;19.50;99.90;;;;;;5090917;28;20604;-79
2023/07/10 04:27:46;;;;;;;15.77;6.53;;;19.60;99.90;;;;;;5090431;28;20737;-79
2023/07/10 04:30:15;;;;;;;23.42;7.13;;;19.40;99.90;;;;;;5085375;28;20209;-81
2023/07/10 04:32:41;;;;;;;12.93;6.70;;;19.50;99.90;;;;;;5095748;28;20229;-79
2023/07/10 04:35:09;;;;;;;15.50;6.28;;;19.50;99.90;;;;;;5094945;28;20220;-79
2023/07/10 04:37:36;;;;;;;15.45;6.38;;;19.50;99.90;;;;;;5095389;28;20202;-80
2023/07/10 04:40:03;;;;;;;13.50;7.32;;;19.50;99.90;;;;;;5089709;28;20205;-80
2023/07/10 04:42:31;;;;;;;11.05;6.15;;;19.60;99.90;;;;;;5096178;28;20260;-80
2023/07/10 04:44:57;;;;;;;14.68;6.57;;;19.80;99.90;;;;;;5089451;28;20576;-79
2023/07/10 04:47:25;;;;;;;13.85;5.75;;;19.90;99.90;;;;;;5089293;28;20209;-79
2023/07/10 04:49:52;;;;;;;11.73;6.32;;;20.10;99.90;;;;;;5087297;28;20210;-79
2023/07/10 04:52:19;;;;;;;12.25;6.13;;;20.30;99.90;;;;;;5093267;28;20225;-78
2023/07/10 04:54:46;;;;;;;12.45;6.35;;;20.20;99.90;;;;;;5089453;28;20201;-79
2023/07/10 04:57:13;;;;;;;13.23;6.25;;;20.30;99.90;;;;;;5090555;28;20212;-80
2023/07/10 04:59:40;;;;;;;13.05;6.97;;;20.30;99.90;;;;;;5091032;28;20197;-80
2023/07/10 05:02:07;;;;;;;10.80;6.65;;;20.20;99.90;;;;;;5095633;28;20221;-80
2023/07/10 05:04:35;;;;;;;11.63;6.38;;;20.40;99.90;;;;;;5092382;28;20721;-80
2023/07/10 05:07:03;;;;;;;10.90;6.90;;;20.30;99.90;;;;;;5088360;28;20213;-80
2023/07/10 05:09:31;;;;;;;12.90;7.22;;;20.50;99.90;;;;;;5078807;28;20244;-79
2023/07/10 05:11:58;;;;;;;14.98;7.75;;;20.60;99.90;;;;;;5089415;28;20834;-79
2023/07/10 05:14:25;;;;;;;12.38;6.80;;;20.60;99.90;;;;;;5092896;28;20205;-79
2023/07/10 05:16:52;;;;;;;11.93;7.53;;;20.60;99.90;;;;;;5085507;28;20210;-81
2023/07/10 05:19:19;;;;;;;12.05;6.65;;;20.60;99.90;;;;;;5092152;28;20214;-81
2023/07/10 05:21:48;;;;;;;11.25;7.28;;;20.70;99.90;;;;;;5088540;28;20221;-81
2023/07/10 05:24:15;;;;;;;13.55;8.07;;;20.70;99.90;;;;;;5084909;28;20197;-81
2023/07/10 05:26:42;;;;;;;11.95;7.95;;;20.80;99.90;;;;;;5088657;28;20202;-81
2023/07/10 05:29:08;;;;;;;15.65;8.65;;;20.70;99.90;;;;;;5088909;28;20209;-82
2023/07/10 05:31:35;;;;;;;16.05;8.65;;;20.70;99.90;;;;;;5084961;28;20332;-81
2023/07/10 05:34:02;;;;;;;11.63;8.60;;;20.70;99.90;;;;;;5095204;28;20229;-80
2023/07/10 05:36:29;;;;;;;10.90;8.05;;;20.70;99.90;;;;;;5092509;28;20205;-81
2023/07/10 05:38:57;;;;;;;11.30;7.53;;;20.80;99.90;;;;;;5087003;28;20203;-81
2023/07/10 05:41:24;;;;;;;12.48;8.27;;;20.80;99.90;;;;;;5086769;28;20689;-81
2023/07/10 05:43:51;;;;;;;15.15;9.38;;;20.90;99.90;;;;;;5083101;28;20197;-82
2023/07/10 05:46:18;;;;;;;13.38;9.20;;;20.90;99.90;;;;;;5083246;28;20206;-83
2023/07/10 05:48:52;;;;;;;15.50;9.68;;;21.00;99.90;;;;;;5084033;28;20270;-83
2023/07/10 05:51:19;;;;;;;19.38;10.95;;;21.00;99.90;;;;;;5080915;28;20302;-83
2023/07/10 05:53:46;;;;;;;15.13;10.27;;;21.00;99.90;;;;;;5087869;28;20221;-81
2023/07/10 05:56:16;;;;;;;16.13;9.95;;;21.10;99.90;;;;;;5083156;28;20209;-79
2023/07/10 05:58:43;;;;;;;20.80;11.55;;;21.00;99.90;;;;;;5088712;28;20201;-83
2023/07/10 06:01:12;;;;;;;16.52;10.80;;;21.00;99.90;;;;;;5086955;28;20602;-83
2023/07/10 06:03:38;;;;;;;15.00;10.48;;;21.10;99.90;;;;;;5085419;28;20559;-83
2023/07/10 06:06:06;;;;;;;14.95;10.98;;;21.00;99.90;;;;;;5095127;28;20203;-82
2023/07/10 06:08:34;;;;;;;16.40;11.43;;;21.00;99.90;;;;;;5080853;28;20207;-82
2023/07/10 06:11:02;;;;;;;16.08;11.65;;;21.00;99.90;;;;;;5088050;28;20685;-82
2023/07/10 06:13:31;;;;;;;15.07;11.18;;;21.00;99.90;;;;;;5086735;28;20205;-82
2023/07/10 06:16:00;;;;;;;16.40;12.50;;;21.00;99.90;;;;;;5089149;28;20212;-82
2023/07/10 06:18:27;;;;;;;17.25;13.13;;;20.90;99.90;;;;;;5095161;28;20225;-82
2023/07/10 06:20:58;;;;;;;16.95;12.77;;;20.80;99.90;;;;;;5088652;28;20654;-82
2023/07/10 06:23:26;;;;;;;16.20;12.70;;;20.60;99.90;;;;;;5081581;28;20220;-82
2023/07/10 06:25:53;;;;;;;18.55;13.05;;;20.60;99.90;;;;;;5092319;28;20209;-82
2023/07/10 06:28:20;;;;;;;19.52;13.63;;;20.60;99.90;;;;;;5091750;28;20205;-82
2023/07/10 06:30:57;;;;;;;19.40;13.45;;;20.50;99.90;;;;;;5084886;28;20643;-82
2023/07/10 06:33:23;;;;;;;19.83;14.15;;;20.70;99.90;;;;;;5090192;28;20264;-83
2023/07/10 06:35:50;;;;;;;21.92;13.93;;;20.70;99.90;;;;;;5087687;28;20551;-82
2023/07/10 06:38:18;;;;;;;20.38;14.43;;;20.70;99.90;;;;;;5093567;28;20201;-82
2023/07/10 06:40:46;;;;;;;17.88;14.38;;;20.60;99.90;;;;;;5095708;28;20232;-83
2023/07/10 06:43:13;;;;;;;18.10;13.10;;;20.60;99.90;;;;;;5095335;28;20218;-82
2023/07/10 06:45:40;;;;;;;21.05;14.77;;;20.60;99.90;;;;;;5087044;28;20688;-83
2023/07/10 06:48:08;;;;;;;20.88;13.90;;;20.40;99.90;;;;;;5095164;28;20210;-82
2023/07/10 06:50:36;;;;;;;18.10;12.85;;;20.30;99.90;;;;;;5087468;28;20201;-83
2023/07/10 06:53:03;;;;;;;19.30;12.77;;;20.30;99.90;;;;;;5090852;28;20226;-82
2023/07/10 06:55:30;;;;;;;18.60;13.23;;;20.40;99.90;;;;;;5085057;28;20590;-84
2023/07/10 06:57:57;;;;;;;17.38;12.68;;;20.30;99.90;;;;;;5091543;28;20672;-83
2023/07/10 07:00:24;;;;;;;17.95;12.05;;;20.40;99.90;;;;;;5093479;28;20296;-82
2023/07/10 07:02:51;;;;;;;15.27;11.20;;;20.40;99.90;;;;;;5090805;28;20218;-84
2023/07/10 07:05:19;;;;;;;19.00;12.32;;;20.40;99.90;;;;;;5093513;28;20236;-81
2023/07/10 07:07:47;;;;;;;16.13;12.07;;;20.40;99.90;;;;;;5090799;28;20198;-83
2023/07/10 07:10:15;;;;;;;18.58;13.18;;;20.30;99.90;;;;;;5095793;28;20233;-82
2023/07/10 07:12:44;;;;;;;19.77;13.55;;;20.30;99.90;;;;;;5083891;28;20265;-82
2023/07/10 07:15:12;;;;;;;21.90;14.07;;;20.20;99.90;;;;;;5086466;28;20203;-83
2023/07/10 07:17:39;;;;;;;19.10;13.30;;;20.20;99.90;;;;;;5090935;28;20194;-82
2023/07/10 07:20:07;;;;;;;19.38;12.68;;;20.20;99.90;;;;;;5087184;28;20202;-81
2023/07/10 07:22:36;;;;;;;19.70;12.63;;;20.30;99.90;;;;;;5086815;28;20235;-81
2023/07/10 07:25:03;;;;;;;18.48;11.95;;;20.40;99.90;;;;;;5088126;28;20206;-84
2023/07/10 07:27:32;;;;;;;15.57;10.80;;;20.50;99.90;;;;;;5094961;28;20209;-83
2023/07/10 07:29:59;;;;;;;13.88;9.60;;;20.50;99.90;;;;;;5087982;28;20231;-82
2023/07/10 07:32:25;;;;;;;14.27;9.82;;;20.60;99.90;;;;;;5087758;28;20229;-81
2023/07/10 07:34:53;;;;;;;13.82;9.52;;;20.70;99.90;;;;;;5090186;28;20639;-81
2023/07/10 07:37:19;;;;;;;14.18;8.95;;;20.70;99.90;;;;;;5089745;28;20766;-81
2023/07/10 07:39:48;;;;;;;11.63;8.73;;;20.90;99.90;;;;;;5096099;28;20372;-81
2023/07/10 07:42:15;;;;;;;12.43;9.23;;;20.80;99.90;;;;;;5094159;28;20254;-81
2023/07/10 07:44:42;;;;;;;12.65;8.65;;;20.60;99.90;;;;;;5097563;28;20293;-83
2023/07/10 07:47:09;;;;;;;12.52;8.18;;;20.60;99.90;;;;;;5093963;28;20650;-82
2023/07/10 07:49:36;;;;;;;11.63;8.25;;;20.60;99.90;;;;;;5089486;28;20216;-82
2023/07/10 07:52:03;;;;;;;12.30;8.00;;;20.60;99.90;;;;;;5091787;28;20226;-82
2023/07/10 07:54:30;;;;;;;10.82;8.40;;;20.70;99.90;;;;;;5099067;28;20202;-81
2023/07/10 07:56:58;;;;;;;11.25;7.95;;;20.60;99.90;;;;;;5087610;28;20272;-83
2023/07/10 07:59:25;;;;;;;12.90;8.00;;;20.70;99.90;;;;;;5096703;28;20224;-82
2023/07/10 08:01:52;;;;;;;11.35;8.27;;;20.70;99.90;;;;;;5090424;28;20222;-82
2023/07/10 08:04:19;;;;;;;11.65;8.48;;;20.70;99.90;;;;;;5091212;28;20210;-83
2023/07/10 08:06:48;;;;;;;13.90;8.73;;;20.60;99.90;;;;;;5093279;28;20232;-82
2023/07/10 08:09:15;;;;;;;13.13;8.77;;;20.70;99.90;;;;;;5094420;28;20677;-83
2023/07/10 08:11:42;;;;;;;14.70;10.10;;;20.70;99.90;;;;;;5088478;28;20230;-83
2023/07/10 08:14:11;;;;;;;14.43;10.35;;;20.60;99.90;;;;;;5093786;28;20199;-82
2023/07/10 08:16:38;;;;;;;15.40;10.85;;;20.50;99.90;;;;;;5098166;28;20209;-82
2023/07/10 08:19:05;;;;;;;16.63;11.95;;;20.50;99.90;;;;;;5092423;28;20198;-81
2023/07/10 08:21:31;;;;;;;16.45;11.63;;;20.30;99.90;;;;;;5098294;28;20225;-82
2023/07/10 08:23:58;;;;;;;15.77;11.65;;;20.40;99.90;;;;;;5081292;28;20205;-82
2023/07/10 08:26:25;;;;;;;16.02;10.73;;;20.40;99.90;;;;;;5089464;28;20202;-83
2023/07/10 08:28:52;;;;;;;15.88;11.77;;;20.40;99.90;;;;;;5086455;28;20578;-83
2023/07/10 08:31:20;;;;;;;14.85;10.63;;;20.60;99.90;;;;;;5085593;28;20226;-82
2023/07/10 08:33:47;;;;;;;15.18;10.65;;;20.70;99.90;;;;;;5089976;28;20651;-83
2023/07/10 08:36:14;;;;;;;13.15;9.77;;;21.00;99.90;;;;;;5092500;28;20292;-82
2023/07/10 08:38:40;;;;;;;12.73;9.38;;;21.40;99.90;;;;;;5086740;28;20214;-82
2023/07/10 08:41:20;;;;;;;14.00;9.75;;;21.50;99.90;;;;;;5096299;28;20573;-81
2023/07/10 08:43:47;;;;;;;12.68;9.45;;;21.40;99.90;;;;;;5089441;28;20209;-81
2023/07/10 08:46:19;;;;;;;13.52;9.43;;;21.40;99.90;;;;;;5087484;28;20202;-81
2023/07/10 08:48:52;;;;;;;13.93;9.48;;;21.20;99.90;;;;;;5087110;28;20864;-81
2023/07/10 08:51:42;;;;;;;12.30;9.57;;;21.10;99.90;;;;;;5095171;28;20249;-80
2023/07/10 08:54:12;;;;;;;11.38;9.02;;;21.10;99.90;;;;;;5082877;28;20264;-81
2023/07/10 08:56:43;;;;;;;10.85;8.48;;;21.10;99.90;;;;;;5087896;28;20213;-81
2023/07/10 08:59:33;;;;;;;13.18;9.43;;;21.00;99.90;;;;;;5087064;28;20213;-84
2023/07/10 09:02:00;;;;;;;13.20;8.88;;;21.20;99.90;;;;;;5094067;28;20351;-83
2023/07/10 09:04:31;;;;;;;12.57;9.40;;;21.70;99.90;;;;;;5093611;28;20199;-82
2023/07/10 09:07:01;;;;;;;11.98;8.77;;;22.20;99.90;;;;;;5086755;28;20277;-82
2023/07/10 09:09:36;;;;;;;11.95;7.72;;;22.30;99.90;;;;;;5087089;28;20232;-82
2023/07/10 09:12:09;;;;;;;12.07;8.55;;;21.90;99.90;;;;;;5081161;28;20686;-81
2023/07/10 09:14:41;;;;;;;10.98;8.32;;;21.80;99.90;;;;;;5096055;28;22348;-81
2023/07/10 09:17:36;;;;;;;10.93;9.00;;;21.60;99.90;;;;;;5089522;28;20201;-81
2023/07/10 09:20:10;;;;;;;12.88;8.82;;;21.50;99.90;;;;;;5081046;28;20310;-81
2023/07/10 09:22:39;;;;;;;14.02;9.80;;;21.60;99.90;;;;;;5089655;28;20592;-80
2023/07/10 09:25:11;;;;;;;18.48;9.50;;;21.90;99.90;;;;;;5082051;28;20233;-86
2023/07/10 09:27:38;;;;;;;13.43;9.13;;;21.60;99.90;;;;;;5086226;28;20202;-81
2023/07/10 09:30:22;;;;;;;14.90;9.27;;;21.80;99.90;;;;;;5090265;28;20202;-82
2023/07/10 09:32:51;;;;;;;14.60;9.48;;;21.90;99.90;;;;;;5088971;28;20225;-82
2023/07/10 09:35:20;;;;;;;11.38;8.32;;;21.80;99.90;;;;;;5091379;28;20207;-82
2023/07/10 09:37:50;;;;;;;11.93;8.27;;;21.80;99.90;;;;;;5094255;28;20209;-80
2023/07/10 09:40:30;;;;;;;12.77;8.75;;;21.80;99.90;;;;;;5080228;28;20220;-81
2023/07/10 09:43:03;;;;;;;14.57;9.23;;;21.60;99.90;;;;;;5083203;28;20224;-82
2023/07/10 09:45:33;;;;;;;12.70;8.73;;;21.60;99.90;;;;;;5086968;28;20205;-82
2023/07/10 09:48:00;;;;;;;11.40;8.02;;;21.50;99.90;;;;;;5090916;28;20223;-83
2023/07/10 09:50:33;;;;;;;10.82;8.57;;;21.70;99.90;;;;;;5090838;28;20197;-83
2023/07/10 09:53:00;;;;;;;17.38;8.45;;;21.70;99.90;;;;;;5081238;28;20218;-82
2023/07/10 09:55:26;;;;;;;13.98;8.60;;;21.90;99.90;;;;;;5093550;28;20198;-83
2023/07/10 09:57:58;;;;;;;15.40;8.77;;;22.00;99.90;;;;;;5089698;28;20650;-82
2023/07/10 10:00:27;;;;;;;13.05;9.05;;;22.20;99.90;;;;;;5088468;28;20206;-84
2023/07/10 10:02:57;;;;;;;13.13;8.57;;;22.10;99.90;;;;;;5093239;28;20780;-84
2023/07/10 10:05:25;;;;;;;13.27;8.73;;;22.00;99.90;;;;;;5080746;28;20653;-84
2023/07/10 10:08:02;;;;;;;13.15;8.77;;;22.00;99.90;;;;;;5081447;28;20209;-84
2023/07/10 10:10:31;;;;;;;15.73;9.27;;;22.10;99.90;;;;;;5086109;28;20213;-83
2023/07/10 10:13:07;;;;;;;14.13;9.30;;;22.00;99.90;;;;;;5086663;28;20225;-82
2023/07/10 10:15:42;;;;;;;15.00;10.02;;;21.90;99.90;;;;;;5091931;28;20630;-85
2023/07/10 10:18:24;;;;;;;14.32;9.48;;;21.80;99.90;;;;;;5086183;28;20202;-83
2023/07/10 10:20:52;;;;;;;13.75;9.95;;;21.70;99.90;;;;;;5091954;28;20209;-83
2023/07/10 10:23:30;;;;;;;14.35;9.20;;;21.70;99.90;;;;;;5089050;28;20201;-82
2023/07/10 10:26:10;;;;;;;14.82;8.50;;;22.30;99.90;;;;;;5083107;28;20213;-83
2023/07/10 10:28:45;;;;;;;11.90;8.18;;;22.30;99.90;;;;;;5078687;28;20587;-82
2023/07/10 10:31:17;;;;;;;13.07;8.27;;;22.70;99.90;;;;;;5084076;28;20275;-82
2023/07/10 10:33:55;;;;;;;13.23;7.57;;;22.90;99.90;;;;;;5087648;28;20229;-81
2023/07/10 10:36:29;;;;;;;9.68;6.22;;;23.20;99.90;;;;;;5091125;28;20225;-82
2023/07/10 10:39:04;;;;;;;9.63;6.50;;;23.90;99.90;;;;;;5088942;28;20205;-84
2023/07/10 10:41:45;;;;;;;10.70;6.05;;;24.40;99.90;;;;;;5093889;28;20220;-85
2023/07/10 10:44:23;;;;;;;8.52;6.47;;;24.40;99.90;;;;;;5087559;28;20646;-81
2023/07/10 10:47:10;;;;;;;9.40;6.55;;;24.40;99.90;;;;;;5087363;28;20201;-84
2023/07/10 10:50:01;;;;;;;6.65;5.35;;;24.20;99.90;;;;;;5090445;28;20201;-84
2023/07/10 10:52:35;;;;;;;7.97;4.97;;;24.30;99.90;;;;;;5087425;28;20230;-81
2023/07/10 10:55:25;;;;;;;7.95;4.80;;;24.50;99.90;;;;;;5098546;28;20214;-81
2023/07/10 10:58:06;;;;;;;6.13;4.40;;;24.40;99.90;;;;;;5093136;28;20210;-81
2023/07/10 11:00:45;;;;;;;5.35;4.20;;;24.90;99.90;;;;;;5094808;28;20208;-81
2023/07/10 11:03:23;;;;;;;6.07;4.00;;;24.70;99.90;;;;;;5095357;28;20220;-81
2023/07/10 11:05:53;;;;;;;5.95;3.40;;;24.90;99.90;;;;;;5092917;28;20206;-83
2023/07/10 11:08:24;;;;;;;5.20;3.20;;;25.00;99.90;;;;;;5095722;28;20261;-82
2023/07/10 11:10:54;;;;;;;4.57;3.20;;;25.00;99.90;;;;;;5094031;28;20711;-81
2023/07/10 11:13:28;;;;;;;4.80;3.10;;;24.90;99.90;;;;;;5095899;28;20297;-81
2023/07/10 11:15:56;;;;;;;4.05;3.45;;;25.20;99.90;;;;;;5098017;28;20204;-81
2023/07/10 11:18:24;;;;;;;3.45;3.05;;;25.50;99.90;;;;;;5093774;28;20201;-81
2023/07/10 11:20:51;;;;;;;5.32;3.35;;;25.30;99.90;;;;;;5090780;28;20198;-82
2023/07/10 11:23:36;;;;;;;3.47;3.00;;;25.40;99.90;;;;;;5095490;28;20194;-84
2023/07/10 11:26:08;;;;;;;4.57;3.13;;;25.50;99.90;;;;;;5095770;28;20213;-84
2023/07/10 11:28:35;;;;;;;4.80;3.92;;;25.70;99.90;;;;;;5093728;28;20290;-82
2023/07/10 11:31:37;;;;;;;4.80;2.95;;;26.20;99.90;;;;;;5089506;28;20204;-83
2023/07/10 11:34:36;;;;;;;4.18;3.30;;;26.40;99.90;;;;;;5038217;28;20262;-82
2023/07/10 11:37:03;;;;;;;5.72;3.08;;;26.60;99.90;;;;;;5037579;28;20219;-81
2023/07/10 11:39:34;;;;;;;4.38;3.30;;;26.40;99.90;;;;;;5071239;28;20208;-82
2023/07/10 11:42:16;;;;;;;5.65;3.20;;;26.10;99.90;;;;;;5095137;28;20653;-82
2023/07/10 11:44:46;;;;;;;2.97;2.60;;;25.70;99.90;;;;;;5093624;28;20208;-81
2023/07/10 11:47:27;;;;;;;5.20;2.85;;;25.90;99.90;;;;;;5087996;28;20232;-82
2023/07/10 11:50:16;;;;;;;3.42;2.55;;;25.70;99.90;;;;;;5088349;28;20205;-82
2023/07/10 11:52:43;;;;;;;4.35;2.70;;;25.50;99.90;;;;;;5081974;28;20226;-82
2023/07/10 11:55:24;;;;;;;4.55;2.78;;;25.20;99.90;;;;;;5087842;28;20658;-82
2023/07/10 11:58:25;;;;;;;5.13;2.90;;;25.10;99.90;;;;;;5089625;28;20251;-82
2023/07/10 12:01:01;;;;;;;4.95;2.83;;;25.40;99.90;;;;;;5079983;28;20208;-83
2023/07/10 12:03:33;;;;;;;3.47;2.80;;;25.10;99.90;;;;;;5088916;28;20201;-83
2023/07/10 12:06:00;;;;;;;4.18;2.78;;;25.20;99.90;;;;;;5086381;28;20201;-82
2023/07/10 12:08:30;;;;;;;4.18;2.90;;;25.20;99.90;;;;;;5091226;28;20193;-82
2023/07/10 12:10:58;;;;;;;4.25;2.85;;;25.40;99.90;;;;;;5089154;28;20205;-82
2023/07/10 12:13:30;;;;;;;3.88;3.05;;;25.30;99.90;;;;;;5091146;28;20625;-81
2023/07/10 12:15:59;;;;;;;6.40;3.03;;;25.30;99.90;;;;;;5082521;28;20212;-83
2023/07/10 12:18:32;;;;;;;3.75;2.90;;;25.00;99.90;;;;;;5095528;28;20210;-81
2023/07/10 12:21:06;;;;;;;3.55;2.80;;;24.90;99.90;;;;;;5090839;28;20693;-82
2023/07/10 12:23:32;;;;;;;3.53;2.70;;;25.00;99.90;;;;;;5086036;28;20206;-81
2023/07/10 12:26:00;;;;;;;3.10;2.50;;;25.00;99.90;;;;;;5095892;28;20564;-81
2023/07/10 12:28:29;;;;;;;3.72;2.75;;;25.20;99.90;;;;;;5089035;28;20205;-81
2023/07/10 12:30:57;;;;;;;3.35;2.67;;;24.80;99.90;;;;;;5088126;28;20212;-82
2023/07/10 12:33:36;;;;;;;4.90;3.28;;;24.70;99.90;;;;;;5081562;28;20210;-81
2023/07/10 12:36:06;;;;;;;4.32;2.92;;;24.40;99.90;;;;;;5087192;28;20202;-82
2023/07/10 12:38:33;;;;;;;3.63;3.08;;;24.70;99.90;;;;;;5084744;28;20285;-83
2023/07/10 12:41:02;;;;;;;3.92;2.92;;;25.30;99.90;;;;;;5079514;28;20289;-81
2023/07/10 12:43:30;;;;;;;3.95;2.55;;;25.70;99.90;;;;;;5094946;28;20201;-83
2023/07/10 12:45:59;;;;;;;4.35;2.90;;;25.50;99.90;;;;;;5087049;28;20692;-82
2023/07/10 12:48:30;;;;;;;3.47;2.78;;;25.20;99.90;;;;;;5089202;28;20204;-83
2023/07/10 12:51:00;;;;;;;4.72;2.85;;;25.20;99.90;;;;;;5087721;28;20922;-81